LDPL/PUY METAR and TAF weather

Enter ICAO airport designator
Station Type Date Time Source
LDPL METAR 2019/04/18 14:30 UTC NOAA

LDPL 181430Z 10012KT CAVOK 19/06 Q1024 NOSIG


Station Type Date Time Source
LDPL Decoded METAR 2019/04/18 14:30 UTC NOAA

Pula Aerodrome, Croatia (LDPL) 45-54N 013-55E 63M
Apr 18, 2019 - 10:30 AM EDT / 2019.04.18 1430 UTC
Wind: from the E (100 degrees) at 14 MPH (12 KT):0
Visibility: greater than 7 mile(s):0
Temperature: 66 F (19 C)
Dew Point: 42 F (6 C)
Relative Humidity: 42%
Pressure (altimeter): 30.24 in. Hg (1024 hPa)
ob: LDPL 181430Z 10012KT CAVOK 19/06 Q1024 NOSIG
cycle: 14

Station Type Date Time Source
LDPL TAF 2019/04/18 12:27 UTC NOAA

TAF LDPL 181125Z 1812/1912 09010KT CAVOK TX20/1813Z TN11/1904Z

Example: see airport list